Time;durP1;ratioP1;P1;durP2;ratioP2;P2;SDS_P1;SDS_P2;PMS_P1;PMS_P2;Temp;Humidity;BMP_temperature;BMP_pressure;BME280_temperature;BME280_humidity;BME280_pressure;Samples;Min_cycle;Max_cycle;Signal;HPM_P1;HPM_P2
2022/11/08 00:02:18;;;;;;;27.58;16.07;;;;;;;2.37;85.65;100878.08;1722402;83;21245;-76
2022/11/08 00:15:37;;;;;;;31.12;16.67;;;;;;;2.11;87.15;100883.47;1708094;84;21177;-77
2022/11/08 00:18:44;;;;;;;29.00;17.95;;;;;;;2.12;86.95;100881.18;1706739;83;21267;-77
2022/11/08 00:21:51;;;;;;;29.98;18.77;;;;;;;2.11;86.80;100883.47;1720815;83;21245;-76
2022/11/08 00:24:57;;;;;;;35.52;17.37;;;;;;;2.01;87.03;100878.36;1722222;83;21275;-76
2022/11/08 00:28:04;;;;;;;31.77;17.75;;;;;;;2.01;87.46;100879.70;1723444;83;21799;-76
2022/11/08 00:31:14;;;;;;;33.00;18.95;;;;;;;1.96;87.66;100877.81;1723380;83;21840;-77
2022/11/08 00:34:19;;;;;;;30.85;15.95;;;;;;;1.95;87.65;100875.61;1722856;83;21258;-75
2022/11/08 00:37:24;;;;;;;30.02;18.10;;;;;;;2.16;87.14;100874.56;1692227;84;21253;-76
2022/11/08 00:40:30;;;;;;;31.42;18.55;;;;;;;2.26;86.46;100882.91;1693113;84;21221;-75
2022/11/08 00:43:37;;;;;;;40.70;18.82;;;;;;;2.08;86.44;100886.41;1693259;84;21217;-76
2022/11/08 00:46:43;;;;;;;40.55;19.65;;;;;;;2.49;85.76;100886.17;1691012;84;21194;-77
2022/11/08 00:49:49;;;;;;;28.80;16.17;;;;;;;2.08;86.54;100878.31;1693443;84;21515;-77
2022/11/08 00:52:55;;;;;;;32.38;18.55;;;;;;;2.11;86.49;100880.78;1692333;84;21741;-76
2022/11/08 00:56:18;;;;;;;34.53;18.02;;;;;;;2.15;86.11;100882.78;1693488;84;21277;-76
2022/11/08 00:59:25;;;;;;;30.15;18.07;;;;;;;2.08;86.26;100874.76;1673654;84;21230;-76
2022/11/08 01:02:30;;;;;;;35.28;19.45;;;;;;;2.18;85.61;100872.64;1692179;84;21262;-76
2022/11/08 01:05:36;;;;;;;32.65;19.12;;;;;;;2.00;85.95;100875.28;1700821;83;21257;-77
2022/11/08 01:08:41;;;;;;;36.83;22.52;;;;;;;1.99;86.41;100876.27;1713102;83;21214;-76
2022/11/08 01:11:46;;;;;;;38.53;21.40;;;;;;;1.79;87.02;100873.61;1712217;83;21233;-76
2022/11/08 01:14:53;;;;;;;32.15;20.23;;;;;;;1.73;88.27;100875.36;1712780;83;21801;-76
2022/11/08 01:18:00;;;;;;;35.63;20.35;;;;;;;1.87;88.31;100871.22;1711449;83;21218;-77
2022/11/08 01:21:06;;;;;;;31.15;17.17;;;;;;;2.06;88.11;100869.45;1717443;83;21325;-76
2022/11/08 01:24:12;;;;;;;32.53;18.30;;;;;;;2.18;88.07;100881.23;1722401;82;21809;-76
2022/11/08 01:27:20;;;;;;;34.05;19.80;;;;;;;2.30;87.81;100869.53;1723665;83;21865;-76
2022/11/08 01:30:26;;;;;;;34.40;19.50;;;;;;;2.44;87.79;100876.65;1723610;83;21192;-76
2022/11/08 01:33:32;;;;;;;33.98;19.27;;;;;;;2.67;87.29;100874.98;1723804;83;21362;-76
2022/11/08 01:36:39;;;;;;;29.12;18.90;;;;;;;2.63;86.78;100870.77;1722322;82;21196;-76
2022/11/08 01:39:45;;;;;;;36.48;19.07;;;;;;;2.85;86.71;100868.73;1717115;83;21243;-76
2022/11/08 01:42:52;;;;;;;27.67;17.12;;;;;;;3.04;85.84;100881.25;1692970;84;21268;-75
2022/11/08 01:46:30;;;;;;;28.20;16.77;;;;;;;2.90;86.11;100883.62;1709405;83;21811;-76
2022/11/08 01:49:46;;;;;;;28.50;17.30;;;;;;;2.89;86.43;100883.25;1690676;84;21272;-75
2022/11/08 01:52:58;;;;;;;28.80;19.12;;;;;;;3.16;86.09;100883.54;1709823;82;21346;-76
2022/11/08 01:56:04;;;;;;;29.18;18.77;;;;;;;3.15;86.01;100879.94;1710681;84;21867;-75
2022/11/08 01:59:10;;;;;;;28.60;18.32;;;;;;;3.17;86.01;100882.55;1709365;84;21754;-76
2022/11/08 02:02:18;;;;;;;27.73;16.87;;;;;;;3.27;85.89;100880.87;1710197;84;21205;-76
2022/11/08 02:05:25;;;;;;;31.97;18.40;;;;;;;3.28;85.93;100885.30;1710717;84;21192;-76
2022/11/08 02:08:36;;;;;;;25.90;17.80;;;;;;;3.28;85.64;100887.52;1710008;83;21216;-76
2022/11/08 02:11:42;;;;;;;31.12;18.48;;;;;;;3.35;85.49;100878.96;1710663;84;21232;-76
2022/11/08 02:14:49;;;;;;;29.75;17.37;;;;;;;3.28;85.46;100881.25;1709324;83;21212;-76
2022/11/08 02:17:55;;;;;;;28.83;18.05;;;;;;;3.20;85.70;100881.84;1710874;84;21196;-75
2022/11/08 02:21:13;;;;;;;31.50;19.30;;;;;;;3.25;85.75;100886.91;1710598;84;21197;-75
2022/11/08 02:24:20;;;;;;;29.45;19.80;;;;;;;3.27;85.81;100883.58;1709141;82;21224;-76
2022/11/08 02:27:27;;;;;;;28.80;19.27;;;;;;;3.30;85.66;100878.81;1711056;84;21215;-75
2022/11/08 02:30:41;;;;;;;38.20;20.75;;;;;;;3.32;85.62;100879.55;1710276;84;21220;-76
2022/11/08 02:33:48;;;;;;;32.70;20.65;;;;;;;3.29;85.76;100882.50;1710496;84;21236;-76
2022/11/08 02:36:55;;;;;;;35.48;21.30;;;;;;;3.25;86.03;100885.06;1709255;83;21212;-76
2022/11/08 02:40:02;;;;;;;35.48;22.50;;;;;;;3.18;86.46;100886.97;1711415;83;21212;-77
2022/11/08 02:43:07;;;;;;;38.88;23.00;;;;;;;3.23;86.51;100886.14;1709854;84;21196;-76
2022/11/08 02:46:15;;;;;;;38.02;24.20;;;;;;;3.53;85.27;100883.83;1711094;84;21220;-76
2022/11/08 02:49:20;;;;;;;47.17;27.07;;;;;;;3.56;84.91;100885.42;1709293;84;21244;-76
2022/11/08 02:52:27;;;;;;;42.23;25.77;;;;;;;3.59;84.91;100879.30;1709273;84;21236;-76
2022/11/08 02:55:33;;;;;;;44.23;25.85;;;;;;;3.68;84.52;100885.84;1709290;84;21200;-76
2022/11/08 02:58:38;;;;;;;45.15;25.00;;;;;;;3.57;84.67;100893.91;1710582;84;21197;-76
2022/11/08 03:01:45;;;;;;;43.45;26.35;;;;;;;3.75;84.18;100897.91;1710569;84;21297;-77
2022/11/08 03:04:52;;;;;;;43.75;25.88;;;;;;;3.62;84.37;100889.00;1710799;84;21236;-76
2022/11/08 03:08:00;;;;;;;35.52;21.68;;;;;;;3.59;84.44;100897.38;1710651;84;21205;-76
2022/11/08 03:11:09;;;;;;;49.00;25.43;;;;;;;3.43;84.93;100900.36;1693695;84;21220;-75
2022/11/08 03:14:15;;;;;;;34.63;23.40;;;;;;;3.51;84.95;100901.14;1710317;84;21236;-76
2022/11/08 03:17:22;;;;;;;34.50;22.58;;;;;;;3.60;84.68;100888.27;1709359;84;21255;-75
2022/11/08 03:20:28;;;;;;;35.75;23.07;;;;;;;3.65;84.11;100895.54;1710724;84;21573;-76
2022/11/08 03:23:34;;;;;;;38.60;24.23;;;;;;;3.56;84.14;100900.30;1709939;82;21255;-75
2022/11/08 03:26:41;;;;;;;38.83;23.00;;;;;;;3.51;84.14;100898.44;1710706;84;21315;-75
2022/11/08 03:29:41;;;;;;;35.85;23.22;;;;;;;3.42;84.55;100901.34;1710564;84;21200;-77
2022/11/08 03:32:34;;;;;;;43.00;26.00;;;;;;;3.39;84.78;100903.41;1710565;84;21494;-77
2022/11/08 03:35:21;;;;;;;48.30;25.90;;;;;;;3.55;84.62;100902.64;1710616;84;21819;-79
2022/11/08 03:38:21;;;;;;;40.35;24.85;;;;;;;3.48;84.17;100897.31;1710548;84;21256;-79
2022/11/08 03:41:26;;;;;;;46.30;27.15;;;;;;;3.55;84.26;100894.52;1713338;83;21805;-76
2022/11/08 03:44:31;;;;;;;38.20;22.93;;;;;;;3.55;84.27;100890.47;1722695;83;21205;-77
2022/11/08 03:47:37;;;;;;;46.85;26.93;;;;;;;3.69;83.84;100897.03;1723776;83;21240;-76
2022/11/08 03:50:42;;;;;;;41.10;25.02;;;;;;;3.65;83.89;100897.39;1723705;83;21251;-76
2022/11/08 03:53:49;;;;;;;38.05;23.47;;;;;;;3.63;83.94;100897.52;1723211;83;21220;-78
2022/11/08 03:56:50;;;;;;;52.65;29.07;;;;;;;3.52;84.29;100890.69;1723708;83;21244;-78
2022/11/08 03:59:56;;;;;;;42.62;27.37;;;;;;;3.64;83.89;100896.53;1723749;83;21200;-77
2022/11/08 04:03:03;;;;;;;42.30;24.90;;;;;;;3.58;83.80;100887.54;1723640;83;21251;-78
2022/11/08 04:06:09;;;;;;;42.38;25.05;;;;;;;3.68;83.96;100893.10;1723653;83;21315;-76
2022/11/08 04:09:16;;;;;;;39.55;25.15;;;;;;;3.73;83.70;100891.77;1723553;82;21216;-75
2022/11/08 04:15:47;;;;;;;27.98;18.65;;;;;;;3.26;85.35;100892.68;1723720;83;21751;-76
2022/11/08 04:22:19;;;;;;;27.62;20.25;;;;;;;3.58;84.33;100885.69;1723612;83;21248;-76
2022/11/08 04:25:27;;;;;;;27.07;20.32;;;;;;;3.37;84.74;100890.51;1720747;83;21275;-77
2022/11/08 04:28:37;;;;;;;26.37;17.57;;;;;;;3.37;84.82;100891.86;1722414;83;21501;-76
2022/11/08 04:31:43;;;;;;;29.92;21.73;;;;;;;3.65;84.46;100890.63;1722374;83;21224;-76
2022/11/08 04:34:48;;;;;;;35.55;21.85;;;;;;;3.63;84.19;100888.05;1721491;83;21291;-75
2022/11/08 04:37:55;;;;;;;30.72;20.50;;;;;;;3.59;83.98;100892.82;1720678;83;21314;-76
2022/11/08 04:41:02;;;;;;;26.65;18.77;;;;;;;3.55;84.75;100885.05;1721280;83;21230;-76
2022/11/08 04:44:08;;;;;;;27.13;20.02;;;;;;;3.54;84.48;100884.69;1701455;83;21225;-76
2022/11/08 04:47:14;;;;;;;25.60;18.10;;;;;;;3.44;84.41;100888.59;1721983;83;21213;-76
2022/11/08 04:50:20;;;;;;;23.87;17.00;;;;;;;3.45;84.78;100890.80;1722212;83;21867;-77
2022/11/08 04:53:26;;;;;;;25.35;18.23;;;;;;;3.61;83.94;100884.58;1722282;83;21177;-75
2022/11/08 04:56:34;;;;;;;28.75;18.42;;;;;;;3.36;84.44;100891.49;1693471;84;21257;-76
2022/11/08 04:59:41;;;;;;;25.27;18.20;;;;;;;3.37;84.42;100894.08;1694832;84;21745;-79
2022/11/08 05:02:47;;;;;;;28.02;19.77;;;;;;;3.43;84.38;100893.59;1694734;84;21824;-77
2022/11/08 05:05:53;;;;;;;24.10;17.60;;;;;;;3.51;84.09;100889.83;1693396;84;21201;-76
2022/11/08 05:09:01;;;;;;;25.68;17.90;;;;;;;3.59;83.91;100890.61;1694665;84;21828;-77
2022/11/08 05:12:09;;;;;;;26.05;17.73;;;;;;;3.43;84.54;100888.69;1694886;84;21241;-76
2022/11/08 05:15:16;;;;;;;24.37;16.85;;;;;;;3.49;84.33;100884.18;1693352;83;21289;-76
2022/11/08 05:18:20;;;;;;;28.32;18.98;;;;;;;3.44;84.33;100887.73;1694748;84;21233;-76
2022/11/08 05:24:50;;;;;;;30.02;18.50;;;;;;;3.57;84.05;100889.84;1694899;83;21229;-76
2022/11/08 05:27:56;;;;;;;21.70;16.20;;;;;;;3.59;83.42;100890.61;1693366;84;21721;-79
2022/11/08 05:31:02;;;;;;;26.07;17.77;;;;;;;3.68;83.20;100893.96;1694580;84;21380;-79
2022/11/08 05:34:07;;;;;;;29.63;19.45;;;;;;;3.65;83.58;100895.54;1695165;84;21197;-78
2022/11/08 05:37:14;;;;;;;25.92;19.48;;;;;;;3.64;83.40;100891.61;1694763;84;21760;-79
2022/11/08 05:40:21;;;;;;;25.45;16.95;;;;;;;3.66;82.99;100892.34;1704581;83;21491;-76
2022/11/08 05:43:27;;;;;;;29.55;18.87;;;;;;;3.50;83.42;100896.72;1722046;82;21255;-77
2022/11/08 05:46:33;;;;;;;24.82;17.67;;;;;;;3.56;83.74;100894.89;1709558;84;21208;-77
2022/11/08 05:49:39;;;;;;;22.52;15.83;;;;;;;3.71;83.13;100895.06;1710468;84;21189;-76
2022/11/08 05:52:45;;;;;;;21.93;16.12;;;;;;;3.67;83.15;100890.00;1693319;84;21258;-77
2022/11/08 05:55:50;;;;;;;23.27;15.95;;;;;;;3.65;83.13;100896.89;1698233;84;21245;-77
2022/11/08 05:58:57;;;;;;;24.47;17.27;;;;;;;3.67;83.19;100894.95;1709124;84;21732;-76
2022/11/08 06:02:03;;;;;;;23.15;16.95;;;;;;;3.57;83.32;100902.02;1704563;84;21197;-76
2022/11/08 06:05:05;;;;;;;23.42;16.15;;;;;;;3.76;82.50;100887.94;1695935;84;21201;-75
2022/11/08 06:08:00;;;;;;;22.40;15.63;;;;;;;3.91;82.50;100886.77;1693694;84;21193;-76
2022/11/08 06:11:20;;;;;;;21.80;15.08;;;;;;;4.06;81.85;100898.24;1695882;84;21614;-76
2022/11/08 06:14:27;;;;;;;21.40;15.43;;;;;;;4.11;81.56;100893.33;1700020;84;21220;-79
2022/11/08 06:17:32;;;;;;;21.02;15.48;;;;;;;4.31;80.92;100906.64;1698816;84;21193;-79
2022/11/08 06:20:41;;;;;;;19.45;14.60;;;;;;;4.21;80.24;100902.45;1696296;84;21224;-79
2022/11/08 06:23:47;;;;;;;21.30;15.35;;;;;;;4.05;80.76;100900.59;1659329;85;21295;-80
2022/11/08 06:26:47;;;;;;;22.52;15.72;;;;;;;4.00;81.49;100902.30;1704141;84;21421;-79
2022/11/08 06:29:53;;;;;;;21.82;16.62;;;;;;;4.02;81.64;100900.32;1696460;84;21247;-80
2022/11/08 06:32:59;;;;;;;18.85;13.62;;;;;;;4.03;81.18;100910.66;1705531;84;21208;-80
2022/11/08 06:36:05;;;;;;;22.85;15.60;;;;;;;3.94;81.69;100912.72;1707880;84;21226;-78
2022/11/08 06:39:15;;;;;;;21.17;15.67;;;;;;;4.18;80.98;100910.80;1637918;84;44595;-78
2022/11/08 06:42:21;;;;;;;26.52;16.50;;;;;;;4.01;80.67;100912.14;1673326;84;21929;-77
2022/11/08 06:45:28;;;;;;;21.75;15.70;;;;;;;3.88;81.50;100913.20;1676823;83;21211;-77
2022/11/08 06:48:34;;;;;;;26.15;16.10;;;;;;;3.89;82.05;100916.28;1630172;86;21266;-78
2022/11/08 06:51:39;;;;;;;21.97;16.15;;;;;;;4.01;82.05;100924.81;1655453;85;21263;-78
2022/11/08 06:54:46;;;;;;;21.00;15.25;;;;;;;3.92;82.24;100920.11;1673997;84;21219;-80
2022/11/08 06:57:51;;;;;;;21.70;15.95;;;;;;;4.11;81.78;100923.11;1664255;86;21786;-78
2022/11/08 07:00:58;;;;;;;22.93;15.88;;;;;;;4.29;81.32;100932.99;1638338;85;21235;-77
2022/11/08 07:04:05;;;;;;;22.30;16.77;;;;;;;4.32;81.20;100926.82;1671314;84;21416;-77
2022/11/08 07:07:12;;;;;;;19.17;14.87;;;;;;;4.22;80.71;100923.12;1690604;83;21232;-79
2022/11/08 07:10:18;;;;;;;23.02;14.23;;;;;;;4.22;80.55;100918.20;1687657;83;21972;-79
2022/11/08 07:13:25;;;;;;;25.92;13.70;;;;;;;4.48;79.94;100917.50;1673043;84;21274;-77
2022/11/08 07:16:25;;;;;;;24.10;16.48;;;;;;;4.29;80.11;100912.19;1688611;83;21860;-77
2022/11/08 07:19:30;;;;;;;17.95;13.28;;;;;;;4.05;81.09;100912.28;1674640;84;21960;-78
2022/11/08 07:22:47;;;;;;;20.02;14.03;;;;;;;4.08;81.30;100912.51;1645287;86;21273;-78
2022/11/08 07:25:53;;;;;;;21.62;15.83;;;;;;;4.13;81.10;100907.59;1682239;83;21227;-77
2022/11/08 07:29:00;;;;;;;23.98;15.38;;;;;;;4.16;80.79;100897.03;1642680;86;21256;-77
2022/11/08 07:32:10;;;;;;;20.75;13.20;;;;;;;4.14;80.62;100903.92;1665524;84;21349;-78
2022/11/08 07:35:15;;;;;;;20.62;13.62;;;;;;;4.22;80.52;100904.66;1664065;84;21253;-77
2022/11/08 07:38:24;;;;;;;22.17;15.85;;;;;;;4.31;80.17;100909.34;1695700;82;38199;-78
2022/11/08 07:41:31;;;;;;;18.62;13.95;;;;;;;4.51;79.89;100906.40;1636215;85;21216;-80
2022/11/08 07:44:38;;;;;;;24.05;14.18;;;;;;;4.77;78.94;100911.09;1679855;84;21242;-80
2022/11/08 07:47:47;;;;;;;18.23;13.62;;;;;;;4.85;78.45;100913.55;1626622;86;21286;-78
2022/11/08 07:50:53;;;;;;;18.45;14.00;;;;;;;4.85;78.52;100912.20;1688900;83;22534;-80
2022/11/08 07:53:59;;;;;;;15.68;11.93;;;;;;;4.82;78.75;100909.72;1647268;85;21228;-79
2022/11/08 07:57:05;;;;;;;29.12;17.23;;;;;;;4.88;78.78;100907.86;1675727;84;22229;-80
2022/11/08 08:00:16;;;;;;;17.48;13.35;;;;;;;4.80;78.60;100907.64;1682294;84;21841;-78
2022/11/08 08:03:23;;;;;;;16.35;11.95;;;;;;;5.01;78.29;100916.36;1692095;83;21599;-77
2022/11/08 08:06:31;;;;;;;17.90;13.38;;;;;;;5.06;77.55;100918.19;1683153;83;21486;-78
2022/11/08 08:09:37;;;;;;;18.42;14.13;;;;;;;5.31;76.08;100912.95;1676125;84;21614;-78
2022/11/08 08:12:43;;;;;;;17.42;12.88;;;;;;;5.11;76.36;100907.33;1691359;83;21229;-78
2022/11/08 08:15:48;;;;;;;16.90;13.15;;;;;;;5.35;75.17;100911.20;1669079;84;21260;-78
2022/11/08 08:18:58;;;;;;;17.70;12.82;;;;;;;5.41;74.72;100911.68;1670915;84;21344;-77
2022/11/08 08:22:05;;;;;;;16.97;13.40;;;;;;;5.42;74.82;100914.28;1670605;84;21890;-79
2022/11/08 08:25:11;;;;;;;17.90;13.15;;;;;;;5.38;74.98;100925.02;1669132;85;21389;-76
2022/11/08 08:28:17;;;;;;;17.62;13.50;;;;;;;5.24;75.28;100923.45;1686873;84;21204;-77
2022/11/08 08:31:23;;;;;;;16.55;12.43;;;;;;;5.40;74.70;100920.31;1643601;86;21342;-77
2022/11/08 08:34:30;;;;;;;18.23;13.43;;;;;;;5.12;75.46;100919.89;1687175;83;21223;-77
2022/11/08 08:37:36;;;;;;;16.85;13.08;;;;;;;5.19;75.26;100918.05;1646197;84;38430;-77
2022/11/08 08:40:41;;;;;;;23.02;13.95;;;;;;;5.17;75.29;100923.58;1688384;83;21263;-78
2022/11/08 08:43:48;;;;;;;20.57;15.28;;;;;;;5.21;75.30;100923.70;1684985;84;21235;-77
2022/11/08 08:46:54;;;;;;;19.37;14.20;;;;;;;5.29;74.77;100910.37;1674594;84;21227;-77
2022/11/08 08:50:00;;;;;;;15.60;12.37;;;;;;;5.30;74.50;100902.59;1629923;86;21278;-77
2022/11/08 08:53:06;;;;;;;19.35;13.98;;;;;;;5.36;74.24;100902.10;1665836;84;21873;-78
2022/11/08 08:56:14;;;;;;;16.50;12.05;;;;;;;5.35;74.48;100905.78;1665999;84;21226;-78
2022/11/08 08:59:21;;;;;;;14.85;11.45;;;;;;;5.29;74.54;100905.44;1665934;84;21189;-78
2022/11/08 09:02:28;;;;;;;17.05;12.45;;;;;;;5.34;74.46;100908.13;1667113;84;21195;-78
2022/11/08 09:05:36;;;;;;;21.50;14.98;;;;;;;5.36;74.23;100905.28;1654468;84;21200;-78
2022/11/08 09:08:41;;;;;;;17.55;12.50;;;;;;;5.38;74.28;100904.17;1671656;84;21256;-79
2022/11/08 09:11:50;;;;;;;16.57;12.37;;;;;;;5.56;74.11;100907.20;1676803;84;21354;-78
2022/11/08 09:14:57;;;;;;;22.10;13.88;;;;;;;5.71;73.40;100904.17;1667675;85;21217;-78
2022/11/08 09:17:57;;;;;;;15.78;11.90;;;;;;;5.74;72.87;100895.28;1672667;84;21831;-78
2022/11/08 09:21:14;;;;;;;16.27;12.47;;;;;;;5.74;72.46;100903.43;1670732;84;21261;-78
2022/11/08 09:24:18;;;;;;;17.48;12.35;;;;;;;5.62;72.51;100901.25;1664757;84;21233;-78
2022/11/08 09:27:23;;;;;;;17.45;12.50;;;;;;;5.79;72.16;100899.83;1669099;84;21235;-79
2022/11/08 09:30:29;;;;;;;18.48;13.40;;;;;;;5.47;73.03;100894.91;1668404;84;21206;-79
2022/11/08 09:33:34;;;;;;;18.30;12.10;;;;;;;5.46;73.50;100894.52;1666680;84;21173;-79
2022/11/08 09:36:41;;;;;;;17.82;13.55;;;;;;;5.62;73.19;100894.96;1660865;84;21774;-78
2022/11/08 09:39:46;;;;;;;20.72;15.55;;;;;;;5.61;72.96;100890.53;1627806;86;21633;-78
2022/11/08 09:43:30;;;;;;;19.15;14.68;;;;;;;5.87;72.31;100890.50;1679216;84;21165;-79
2022/11/08 09:46:57;;;;;;;23.32;16.40;;;;;;;6.20;70.54;100884.53;1671842;84;22303;-76
2022/11/08 09:50:12;;;;;;;26.45;16.95;;;;;;;5.90;71.22;100880.75;1641450;85;21267;-77
2022/11/08 09:53:37;;;;;;;21.62;16.82;;;;;;;5.76;70.93;100871.57;1696475;83;21316;-76
2022/11/08 09:56:45;;;;;;;19.07;13.80;;;;;;;6.07;70.16;100870.30;1701590;83;21192;-76
2022/11/08 09:59:57;;;;;;;17.55;11.10;;;;;;;6.11;70.20;100873.11;1670534;84;21825;-77
2022/11/08 10:03:02;;;;;;;21.20;15.70;;;;;;;5.97;70.73;100869.38;1671497;84;21192;-78
2022/11/08 10:06:28;;;;;;;20.50;14.28;;;;;;;5.94;70.52;100861.52;1673770;85;21166;-77
2022/11/08 10:10:07;;;;;;;14.70;11.83;;;;;;;6.02;70.41;100860.33;1666568;84;22631;-79
2022/11/08 10:13:21;;;;;;;17.40;13.00;;;;;;;5.86;70.28;100859.42;1674100;84;21283;-78
2022/11/08 10:17:10;;;;;;;17.42;12.98;;;;;;;5.76;70.34;100854.42;1667062;85;21781;-78
2022/11/08 10:20:34;;;;;;;19.07;13.10;;;;;;;5.76;70.38;100849.85;1668591;85;21240;-77
2022/11/08 10:23:49;;;;;;;17.40;13.03;;;;;;;5.86;70.64;100844.48;1690895;83;21250;-77
2022/11/08 10:26:56;;;;;;;19.05;13.08;;;;;;;6.08;69.97;100838.09;1642988;85;21188;-79
2022/11/08 10:30:04;;;;;;;16.97;13.53;;;;;;;6.13;69.93;100838.04;1686883;83;21790;-78
2022/11/08 10:33:31;;;;;;;17.20;13.58;;;;;;;6.08;70.37;100843.52;1639936;85;21885;-78
2022/11/08 10:36:46;;;;;;;19.35;11.88;;;;;;;6.21;70.50;100836.02;1687873;83;21798;-77
2022/11/08 10:40:00;;;;;;;18.95;14.40;;;;;;;6.02;71.11;100834.53;1641570;85;21269;-78
2022/11/08 10:43:25;;;;;;;20.95;14.53;;;;;;;5.93;71.67;100834.86;1691217;83;22308;-79
2022/11/08 10:46:52;;;;;;;23.30;14.23;;;;;;;6.22;70.59;100835.02;1687442;83;21240;-77
2022/11/08 10:49:58;;;;;;;23.12;16.45;;;;;;;6.37;70.29;100835.01;1643090;85;22492;-77
2022/11/08 10:53:08;;;;;;;21.42;15.45;;;;;;;6.50;69.68;100829.84;1618368;88;21309;-76
2022/11/08 10:56:14;;;;;;;18.27;13.28;;;;;;;6.73;69.03;100819.59;1639238;86;21430;-79
2022/11/08 10:59:38;;;;;;;18.17;14.10;;;;;;;6.81;69.10;100811.10;1634701;86;21271;-79
2022/11/08 11:02:44;;;;;;;22.35;15.68;;;;;;;6.33;70.25;100824.05;1637438;86;21543;-79
2022/11/08 11:06:06;;;;;;;20.12;15.50;;;;;;;6.33;69.99;100818.61;1639114;86;21302;-79
2022/11/08 11:09:26;;;;;;;19.55;13.53;;;;;;;6.09;69.75;100818.08;1625441;86;21303;-79
2022/11/08 11:12:31;;;;;;;21.10;15.28;;;;;;;6.33;69.21;100813.17;1635489;86;21215;-79
2022/11/08 11:15:43;;;;;;;18.50;13.90;;;;;;;6.21;69.71;100810.22;1648108;85;21210;-78
2022/11/08 11:18:56;;;;;;;19.70;15.10;;;;;;;6.36;70.10;100815.63;1645900;85;21201;-78
2022/11/08 11:22:11;;;;;;;20.23;16.00;;;;;;;6.63;69.23;100812.30;1654327;85;21236;-78
2022/11/08 11:25:27;;;;;;;19.52;12.47;;;;;;;6.43;69.54;100817.29;1645612;85;21249;-78
2022/11/08 11:28:34;;;;;;;18.48;14.40;;;;;;;6.42;69.57;100816.08;1649280;85;21167;-79
2022/11/08 11:31:43;;;;;;;25.72;14.45;;;;;;;6.50;69.58;100813.55;1662181;85;21220;-79
2022/11/08 11:34:52;;;;;;;21.57;15.60;;;;;;;6.19;69.81;100819.48;1652850;85;21231;-79
2022/11/08 11:37:58;;;;;;;17.70;13.13;;;;;;;6.10;69.98;100825.22;1650895;85;21205;-78
2022/11/08 11:41:05;;;;;;;26.42;14.83;;;;;;;6.39;69.05;100826.20;1651067;85;21237;-77
2022/11/08 11:44:42;;;;;;;20.80;14.33;;;;;;;6.54;68.38;100831.27;1658104;85;21822;-77
2022/11/08 11:48:03;;;;;;;22.13;16.40;;;;;;;6.38;68.74;100831.28;1640043;85;21224;-80
2022/11/08 11:51:09;;;;;;;30.17;14.87;;;;;;;6.70;68.12;100835.70;1656682;84;21304;-80
2022/11/08 11:54:17;;;;;;;21.17;15.03;;;;;;;6.57;67.96;100829.64;1662789;84;21211;-79
2022/11/08 11:57:31;;;;;;;21.97;13.98;;;;;;;6.57;68.05;100826.42;1665388;84;21237;-78
2022/11/08 12:00:36;;;;;;;20.77;14.45;;;;;;;6.21;68.97;100826.98;1664471;84;21223;-78
2022/11/08 12:04:01;;;;;;;19.27;14.83;;;;;;;6.12;68.90;100824.61;1665585;84;21359;-79
2022/11/08 12:07:36;;;;;;;16.32;12.58;;;;;;;6.18;68.71;100824.56;1669246;84;21249;-79
2022/11/08 12:11:24;;;;;;;21.57;14.68;;;;;;;5.96;69.44;100822.86;1685619;83;21860;-80
2022/11/08 12:14:52;;;;;;;21.45;15.50;;;;;;;6.21;68.87;100825.62;1639397;85;21802;-78
2022/11/08 12:18:23;;;;;;;21.15;13.80;;;;;;;6.14;68.97;100824.81;1689020;83;21255;-77
2022/11/08 12:21:54;;;;;;;21.73;15.35;;;;;;;6.12;68.69;100823.25;1618748;86;21867;-76
2022/11/08 12:25:13;;;;;;;19.62;14.05;;;;;;;6.08;68.37;100825.36;1691794;84;21922;-78
2022/11/08 12:28:38;;;;;;;21.15;16.65;;;;;;;5.73;69.37;100826.17;1633487;87;21533;-77
2022/11/08 12:31:57;;;;;;;19.80;15.20;;;;;;;5.68;69.79;100821.14;1614160;87;21568;-79
2022/11/08 12:35:24;;;;;;;18.70;14.13;;;;;;;5.57;70.67;100815.80;1679932;83;22575;-79
2022/11/08 12:38:34;;;;;;;24.85;17.00;;;;;;;5.89;69.58;100816.58;1704338;83;21242;-78
2022/11/08 12:41:42;;;;;;;;;;;;;;;5.85;69.54;100814.27;1632355;86;21251;-78
2022/11/08 12:45:10;;;;;;;23.02;16.85;;;;;;;5.96;68.79;100816.06;1636496;87;20233;-79
2022/11/08 12:48:39;;;;;;;21.40;15.90;;;;;;;5.73;69.85;100820.25;1631766;87;21843;-76
2022/11/08 12:52:07;;;;;;;22.45;15.63;;;;;;;5.81;69.46;100819.59;1682900;83;21264;-78
2022/11/08 12:55:19;;;;;;;23.95;17.15;;;;;;;5.76;70.05;100823.20;1659298;85;21238;-78
2022/11/08 12:58:41;;;;;;;20.88;16.17;;;;;;;5.69;70.54;100837.78;1659714;85;21784;-77
2022/11/08 13:01:48;;;;;;;24.43;16.50;;;;;;;5.61;70.48;100832.18;1661931;85;21234;-77
2022/11/08 13:05:04;;;;;;;20.30;14.73;;;;;;;5.13;71.44;100835.36;1660649;85;21200;-76
2022/11/08 13:08:30;;;;;;;23.27;16.60;;;;;;;4.95;72.23;100832.33;1671427;84;21164;-76
2022/11/08 13:11:56;;;;;;;25.55;18.42;;;;;;;4.64;73.26;100833.98;1674496;84;21287;-76
2022/11/08 13:15:01;;;;;;;26.75;18.48;;;;;;;4.77;73.01;100827.93;1657860;85;21220;-77
2022/11/08 13:18:18;;;;;;;26.45;19.90;;;;;;;4.93;72.63;100830.22;1651683;85;21279;-77
2022/11/08 13:21:38;;;;;;;22.55;16.93;;;;;;;5.01;72.94;100822.81;1662036;85;21262;-78
2022/11/08 13:24:43;;;;;;;26.65;17.62;;;;;;;4.82;73.59;100822.98;1666560;85;21252;-77
2022/11/08 13:27:53;;;;;;;23.07;15.98;;;;;;;4.61;74.44;100827.45;1669181;85;21173;-76
2022/11/08 13:31:07;;;;;;;30.02;17.57;;;;;;;4.75;74.28;100819.08;1661526;85;21196;-77
2022/11/08 13:34:42;;;;;;;28.35;20.48;;;;;;;4.90;73.99;100820.15;1667910;85;22108;-77
2022/11/08 13:38:46;;;;;;;22.95;17.25;;;;;;;5.04;73.67;100815.79;1664400;85;21224;-77
2022/11/08 13:41:35;;;;;;;24.67;18.23;;;;;;;5.11;72.98;100816.98;1664694;85;21830;-78
2022/11/08 13:45:05;;;;;;;29.97;17.03;;;;;;;4.94;73.54;100822.48;1667142;85;21209;-76
2022/11/08 13:48:47;;;;;;;27.98;21.05;;;;;;;4.76;74.12;100822.15;1659711;85;21208;-78
2022/11/08 13:52:51;;;;;;;26.23;19.80;;;;;;;4.76;74.23;100826.71;1631940;84;21190;-76
2022/11/08 13:56:08;;;;;;;35.48;20.65;;;;;;;4.96;73.67;100833.19;1670557;85;21303;-78
2022/11/08 13:59:01;;;;;;;29.30;19.98;;;;;;;4.97;73.46;100834.90;1673711;85;21782;-79
2022/11/08 14:02:32;;;;;;;23.13;17.50;;;;;;;4.96;73.57;100833.19;1670272;86;21267;-77
2022/11/08 14:05:39;;;;;;;24.05;17.92;;;;;;;4.97;73.18;100834.90;1632931;86;21266;-77
2022/11/08 14:09:17;;;;;;;22.75;16.82;;;;;;;5.08;72.84;100824.00;1669841;85;21197;-76
2022/11/08 14:12:45;;;;;;;26.48;19.45;;;;;;;4.91;72.84;100832.70;1686723;85;21168;-78
2022/11/08 14:16:10;;;;;;;28.40;20.60;;;;;;;4.90;72.92;100828.28;1688790;83;21778;-77
2022/11/08 14:19:26;;;;;;;26.48;19.62;;;;;;;4.76;73.08;100839.77;1715982;83;21243;-77
2022/11/08 14:22:34;;;;;;;28.98;19.80;;;;;;;4.88;72.78;100836.52;1714464;83;21810;-77
2022/11/08 14:25:42;;;;;;;24.63;17.27;;;;;;;4.55;73.30;100834.23;1701658;83;21240;-77
2022/11/08 14:28:50;;;;;;;25.92;18.67;;;;;;;4.57;73.28;100826.00;1687311;85;21224;-77
2022/11/08 14:31:55;;;;;;;26.23;19.75;;;;;;;4.31;73.67;100823.55;1687476;85;21185;-76
2022/11/08 14:35:03;;;;;;;31.85;22.07;;;;;;;4.18;74.18;100832.77;1687685;85;21578;-77
2022/11/08 14:38:09;;;;;;;45.43;30.40;;;;;;;4.24;74.11;100833.16;1688136;85;21189;-76
2022/11/08 14:41:17;;;;;;;419.37;264.80;;;;;;;4.14;74.47;100829.47;1687945;85;21192;-77
2022/11/08 14:44:23;;;;;;;92.25;52.83;;;;;;;3.96;74.89;100828.22;1672472;85;21188;-77
2022/11/08 14:47:32;;;;;;;51.33;30.82;;;;;;;3.88;75.21;100842.34;1688556;85;21185;-76
2022/11/08 14:50:39;;;;;;;36.13;25.50;;;;;;;3.63;76.08;100852.02;1687778;85;21283;-76
2022/11/08 14:53:57;;;;;;;37.30;24.55;;;;;;;3.53;76.52;100851.38;1694236;82;21230;-76
2022/11/08 14:57:03;;;;;;;43.45;29.72;;;;;;;3.75;75.94;100857.31;1708327;84;21198;-76